Time;durP1;ratioP1;P1;durP2;ratioP2;P2;SDS_P1;SDS_P2;PMS_P1;PMS_P2;Temp;Humidity;BMP_temperature;BMP_pressure;BME280_temperature;BME280_humidity;BME280_pressure;Samples;Min_cycle;Max_cycle;Signal;HPM_P1;HPM_P2
2022/03/05 00:00:54;;;;;;;28.75;13.38;;;-3.20;99.90;;;;;;5073199;28;20044;-81
2022/03/05 00:03:19;;;;;;;29.60;12.40;;;-3.10;99.90;;;;;;5073547;28;20048;-81
2022/03/05 00:05:45;;;;;;;27.77;12.23;;;-3.20;99.90;;;;;;5073984;28;20053;-81
2022/03/05 00:08:11;;;;;;;29.58;12.23;;;-3.20;99.90;;;;;;5072872;28;20044;-81
2022/03/05 00:10:37;;;;;;;30.50;12.25;;;-3.30;99.90;;;;;;5073897;28;20052;-82
2022/03/05 00:13:04;;;;;;;28.15;12.68;;;-3.20;99.90;;;;;;5074126;28;20487;-81
2022/03/05 00:15:30;;;;;;;33.00;13.02;;;-3.10;99.90;;;;;;5052563;28;20146;-82
2022/03/05 00:17:56;;;;;;;30.23;13.43;;;-3.10;99.90;;;;;;5053572;28;20120;-81
2022/03/05 00:20:23;;;;;;;27.55;12.43;;;-3.20;99.90;;;;;;5054399;28;20137;-81
2022/03/05 00:22:52;;;;;;;30.05;13.27;;;-3.30;99.90;;;;;;5054123;28;20388;-81
2022/03/05 00:25:18;;;;;;;33.90;14.38;;;-3.30;99.90;;;;;;5053391;28;20076;-82
2022/03/05 00:27:43;;;;;;;31.42;11.82;;;-3.20;99.90;;;;;;5074353;28;20126;-82
2022/03/05 00:30:10;;;;;;;28.17;12.60;;;-3.20;99.90;;;;;;5072767;28;20041;-81
2022/03/05 00:32:36;;;;;;;27.98;12.20;;;-3.20;99.90;;;;;;5077014;28;20483;-82
2022/03/05 00:35:01;;;;;;;28.45;12.77;;;-3.10;99.90;;;;;;5077934;28;20498;-81
2022/03/05 00:37:27;;;;;;;30.95;13.02;;;-3.00;99.90;;;;;;5077745;28;20036;-81
2022/03/05 00:39:52;;;;;;;28.80;12.50;;;-3.00;99.90;;;;;;5077895;28;20083;-81
2022/03/05 00:42:18;;;;;;;32.78;12.52;;;-3.00;99.90;;;;;;5077514;28;20494;-81
2022/03/05 00:44:43;;;;;;;28.65;12.73;;;-2.90;99.90;;;;;;5077244;28;20056;-82
2022/03/05 00:47:09;;;;;;;29.90;12.75;;;-2.90;99.90;;;;;;5078022;28;20102;-82
2022/03/05 00:49:35;;;;;;;28.58;12.13;;;-3.10;99.90;;;;;;5076063;28;20044;-82
2022/03/05 00:52:00;;;;;;;30.30;12.30;;;-3.00;99.90;;;;;;5059984;28;20080;-82
2022/03/05 00:54:26;;;;;;;27.00;11.45;;;-3.00;99.90;;;;;;5059541;28;20044;-81
2022/03/05 00:56:52;;;;;;;22.13;9.98;;;-3.00;99.90;;;;;;5077939;28;20036;-81
2022/03/05 00:59:17;;;;;;;25.63;11.55;;;-2.90;99.90;;;;;;5076796;28;20119;-81
2022/03/05 01:01:43;;;;;;;28.88;12.70;;;-2.80;99.90;;;;;;5076974;28;20041;-82
2022/03/05 01:04:08;;;;;;;26.75;10.85;;;-2.90;99.90;;;;;;5059366;28;20382;-81
2022/03/05 01:06:34;;;;;;;22.02;9.90;;;-2.90;99.90;;;;;;5077723;28;20037;-82
2022/03/05 01:09:01;;;;;;;29.85;12.45;;;-2.70;99.90;;;;;;5076264;28;20063;-81
2022/03/05 01:11:27;;;;;;;24.35;10.35;;;-3.00;99.90;;;;;;5093073;28;20055;-81
2022/03/05 01:13:53;;;;;;;27.50;10.98;;;-3.10;99.90;;;;;;5076875;28;20395;-81
2022/03/05 01:16:18;;;;;;;23.42;10.32;;;-3.10;99.90;;;;;;5076109;28;20044;-81
2022/03/05 01:18:44;;;;;;;23.40;10.85;;;-3.10;99.90;;;;;;5058985;28;20754;-81
2022/03/05 01:21:09;;;;;;;24.27;11.32;;;-3.00;99.90;;;;;;5093139;28;20045;-82
2022/03/05 01:23:35;;;;;;;25.08;10.55;;;-3.10;99.90;;;;;;5075732;28;20066;-81
2022/03/05 01:26:01;;;;;;;26.23;11.85;;;-3.10;99.90;;;;;;5076694;28;20040;-81
2022/03/05 01:28:27;;;;;;;28.65;10.90;;;-3.10;99.90;;;;;;5075726;28;20041;-81
2022/03/05 01:30:53;;;;;;;22.67;10.50;;;-3.10;99.90;;;;;;5075705;28;20198;-81
2022/03/05 01:33:18;;;;;;;20.30;10.05;;;-3.10;99.90;;;;;;5059409;28;20040;-81
2022/03/05 01:35:45;;;;;;;21.52;10.77;;;-3.20;99.90;;;;;;5092754;28;20142;-81
2022/03/05 01:38:11;;;;;;;21.85;10.60;;;-2.60;99.90;;;;;;5058677;28;20425;-81
2022/03/05 01:40:38;;;;;;;26.30;11.25;;;-3.20;99.90;;;;;;5075838;28;20460;-81
2022/03/05 01:43:04;;;;;;;27.95;10.75;;;-3.20;99.90;;;;;;5076865;28;20048;-81
2022/03/05 01:45:33;;;;;;;22.60;10.52;;;-3.20;99.90;;;;;;5075644;28;20059;-81
2022/03/05 01:47:59;;;;;;;26.25;11.05;;;-3.20;99.90;;;;;;5077015;28;20044;-81
2022/03/05 01:50:26;;;;;;;26.25;11.25;;;-3.30;99.90;;;;;;5076373;28;20085;-81
2022/03/05 01:52:52;;;;;;;21.67;10.13;;;-3.20;99.90;;;;;;5076934;28;20040;-81
2022/03/05 01:55:17;;;;;;;21.90;10.77;;;-3.10;99.90;;;;;;5075240;28;20089;-81
2022/03/05 01:57:43;;;;;;;22.25;10.95;;;-3.10;99.90;;;;;;5075985;28;20059;-81
2022/03/05 02:00:10;;;;;;;25.00;10.68;;;-3.20;99.90;;;;;;5076070;28;20098;-81
2022/03/05 02:02:36;;;;;;;23.30;10.07;;;-3.10;99.90;;;;;;5063835;28;20055;-81
2022/03/05 02:05:02;;;;;;;24.25;11.30;;;-3.10;99.90;;;;;;5076819;28;20116;-81
2022/03/05 02:07:28;;;;;;;28.10;11.98;;;-3.10;99.90;;;;;;5075228;28;20044;-81
2022/03/05 02:09:57;;;;;;;26.27;11.07;;;-3.10;99.90;;;;;;5076185;28;20048;-81
2022/03/05 02:12:30;;;;;;;24.90;11.82;;;-3.10;99.90;;;;;;5075992;28;20124;-81
2022/03/05 02:14:56;;;;;;;23.45;10.88;;;-3.00;99.90;;;;;;5074921;28;20045;-81
2022/03/05 02:17:22;;;;;;;26.58;10.25;;;-3.00;99.90;;;;;;5076384;28;20047;-80
2022/03/05 02:19:48;;;;;;;25.90;10.48;;;-3.00;99.90;;;;;;5091233;28;20036;-80
2022/03/05 02:22:14;;;;;;;22.25;10.30;;;-3.10;99.90;;;;;;5075884;28;20044;-81
2022/03/05 02:24:39;;;;;;;24.50;11.13;;;-3.10;99.90;;;;;;5075905;28;20557;-80
2022/03/05 02:27:06;;;;;;;28.20;11.85;;;-3.10;99.90;;;;;;5074412;28;20032;-80
2022/03/05 02:29:33;;;;;;;26.25;11.75;;;-2.80;99.90;;;;;;5076418;28;20098;-80
2022/03/05 02:32:00;;;;;;;24.98;10.07;;;-3.10;99.90;;;;;;5074785;28;20056;-80
2022/03/05 02:34:26;;;;;;;22.58;10.85;;;-3.10;99.90;;;;;;5091377;28;20040;-80
2022/03/05 02:36:51;;;;;;;24.35;10.77;;;-3.20;99.90;;;;;;5075525;28;20092;-80
2022/03/05 02:39:17;;;;;;;24.83;11.23;;;-3.20;99.90;;;;;;5057598;28;20040;-80
2022/03/05 02:41:43;;;;;;;21.80;9.25;;;-3.20;99.90;;;;;;5075755;28;20159;-80
2022/03/05 02:44:09;;;;;;;25.05;10.77;;;-3.00;99.90;;;;;;5056671;28;20087;-80
2022/03/05 02:46:35;;;;;;;25.42;11.68;;;-2.80;99.90;;;;;;5074315;28;20051;-80
2022/03/05 02:49:03;;;;;;;22.40;9.43;;;-2.80;99.90;;;;;;5074087;28;20048;-80
2022/03/05 02:51:29;;;;;;;22.77;10.23;;;-2.70;99.90;;;;;;5057557;28;20395;-80
2022/03/05 02:53:54;;;;;;;23.45;9.65;;;-2.70;99.90;;;;;;5075068;28;20486;-81
2022/03/05 02:56:20;;;;;;;19.65;9.25;;;-2.70;99.90;;;;;;5075580;28;20036;-80
2022/03/05 02:58:45;;;;;;;26.85;11.52;;;-2.60;99.90;;;;;;5057500;28;20040;-80
2022/03/05 03:01:11;;;;;;;18.98;8.48;;;-2.60;99.90;;;;;;5057393;28;20101;-80
2022/03/05 03:03:37;;;;;;;18.23;9.00;;;-2.50;99.90;;;;;;5074189;28;20042;-80
2022/03/05 03:06:02;;;;;;;19.98;8.32;;;-2.50;99.90;;;;;;5073425;28;20048;-80
2022/03/05 03:08:28;;;;;;;21.08;9.48;;;-2.60;99.90;;;;;;5074859;28;20403;-80
2022/03/05 03:10:53;;;;;;;17.08;8.55;;;-2.50;99.90;;;;;;5056991;28;20062;-80
2022/03/05 03:13:19;;;;;;;19.90;9.52;;;-2.30;99.90;;;;;;5053450;28;20036;-80
2022/03/05 03:15:44;;;;;;;15.38;8.10;;;-2.40;99.90;;;;;;5054613;28;20044;-80
2022/03/05 03:18:10;;;;;;;20.73;8.35;;;-2.50;99.90;;;;;;5054649;28;20052;-80
2022/03/05 03:20:35;;;;;;;17.50;8.48;;;-1.70;99.90;;;;;;5053327;28;20426;-80
2022/03/05 03:23:01;;;;;;;17.35;9.23;;;-2.70;99.90;;;;;;5058901;28;20047;-80
2022/03/05 03:25:27;;;;;;;14.15;7.38;;;-2.70;99.90;;;;;;5073238;28;20087;-80
2022/03/05 03:27:52;;;;;;;18.92;9.45;;;-2.80;99.90;;;;;;5074291;28;20069;-80
2022/03/05 03:30:18;;;;;;;17.00;7.68;;;-2.60;99.90;;;;;;5074618;28;20040;-80
2022/03/05 03:32:44;;;;;;;18.13;8.52;;;-2.40;99.90;;;;;;5073439;28;20072;-80
2022/03/05 03:35:12;;;;;;;17.65;8.15;;;-2.50;99.90;;;;;;5074375;28;20044;-80
2022/03/05 03:37:39;;;;;;;21.08;10.30;;;-2.50;99.90;;;;;;5074404;28;20044;-80
2022/03/05 03:40:07;;;;;;;19.95;9.88;;;-2.50;99.90;;;;;;5073313;28;20052;-80
2022/03/05 03:42:33;;;;;;;17.48;8.63;;;-2.60;99.90;;;;;;5072544;28;20465;-80
2022/03/05 03:44:58;;;;;;;17.40;9.25;;;-2.60;99.90;;;;;;5073933;28;20110;-80
2022/03/05 03:47:24;;;;;;;17.33;8.02;;;-2.70;99.90;;;;;;5072983;28;20048;-80
2022/03/05 03:49:50;;;;;;;19.02;7.85;;;-2.70;99.90;;;;;;5072614;28;20044;-80
2022/03/05 03:52:15;;;;;;;21.95;8.85;;;-2.80;99.90;;;;;;5073017;28;20048;-80
2022/03/05 03:54:43;;;;;;;14.25;7.97;;;-2.80;99.90;;;;;;5072531;28;20071;-80
2022/03/05 03:57:09;;;;;;;18.88;9.75;;;-2.90;99.90;;;;;;5072954;28;20040;-80
2022/03/05 03:59:35;;;;;;;20.27;8.88;;;-2.80;99.90;;;;;;5074279;28;20159;-80
2022/03/05 04:02:03;;;;;;;25.48;9.38;;;-3.00;99.90;;;;;;5073851;28;20037;-80
2022/03/05 04:04:30;;;;;;;18.10;8.52;;;-3.00;99.90;;;;;;5053816;28;20033;-80
2022/03/05 04:09:40;;;;;;;17.10;8.02;;;-3.10;99.90;;;;;;5057902;28;20503;-80
2022/03/05 04:12:06;;;;;;;18.10;9.20;;;-3.20;99.90;;;;;;5056946;28;20048;-80
2022/03/05 04:14:31;;;;;;;18.70;9.00;;;-3.20;99.90;;;;;;5039955;28;20037;-80
2022/03/05 04:16:57;;;;;;;22.23;10.15;;;-2.60;99.90;;;;;;5040187;28;20376;-80
2022/03/05 04:19:22;;;;;;;20.83;9.30;;;-3.40;99.90;;;;;;5056245;28;20074;-80
2022/03/05 04:21:48;;;;;;;21.20;9.57;;;-3.50;99.90;;;;;;5056903;28;20052;-80
2022/03/05 04:24:14;;;;;;;19.90;9.57;;;-3.50;99.90;;;;;;5075336;28;20098;-80
2022/03/05 04:26:39;;;;;;;21.33;9.50;;;-3.50;99.90;;;;;;5076336;28;20127;-80
2022/03/05 04:29:05;;;;;;;22.92;10.07;;;-2.90;99.90;;;;;;5059897;28;20047;-80
2022/03/05 04:31:31;;;;;;;22.85;11.05;;;-3.60;99.90;;;;;;5060010;28;20123;-81
2022/03/05 04:33:57;;;;;;;18.65;9.55;;;-3.50;99.90;;;;;;5059541;28;20093;-81
2022/03/05 04:36:22;;;;;;;18.35;9.77;;;-3.60;99.90;;;;;;5059836;28;20087;-80
2022/03/05 04:38:48;;;;;;;19.73;9.50;;;-3.60;99.90;;;;;;5060164;28;20402;-80
2022/03/05 04:41:14;;;;;;;28.67;11.57;;;-3.70;99.90;;;;;;5076751;28;20106;-81
2022/03/05 04:43:39;;;;;;;23.10;10.07;;;-3.70;99.90;;;;;;5075826;28;20466;-80
2022/03/05 04:46:05;;;;;;;22.52;9.40;;;-3.40;99.90;;;;;;5076682;28;20056;-80
2022/03/05 04:48:31;;;;;;;23.13;10.88;;;-3.70;99.90;;;;;;5076443;28;20045;-80
2022/03/05 04:50:56;;;;;;;23.85;11.15;;;-3.80;99.90;;;;;;5059696;28;20040;-80
2022/03/05 04:53:22;;;;;;;23.63;10.23;;;-3.80;99.90;;;;;;5059733;28;20110;-80
2022/03/05 04:55:48;;;;;;;22.77;9.98;;;-3.30;99.90;;;;;;5077895;28;20043;-80
2022/03/05 04:58:14;;;;;;;24.10;10.32;;;-3.80;99.90;;;;;;5061303;28;20138;-80
2022/03/05 05:00:40;;;;;;;23.77;11.27;;;-3.40;99.90;;;;;;5078792;28;20102;-80
2022/03/05 05:03:06;;;;;;;22.00;11.18;;;-3.60;99.90;;;;;;5061605;28;20120;-80
2022/03/05 05:05:31;;;;;;;29.10;11.82;;;-3.80;99.90;;;;;;5060410;28;20045;-79
2022/03/05 05:07:57;;;;;;;24.83;11.43;;;-3.80;99.90;;;;;;5059492;28;20120;-80
2022/03/05 05:10:23;;;;;;;28.83;10.38;;;-3.70;99.90;;;;;;5075758;28;20036;-80
2022/03/05 05:12:48;;;;;;;22.13;10.82;;;-3.60;99.90;;;;;;5072681;28;20041;-80
2022/03/05 05:15:14;;;;;;;24.60;10.73;;;-3.30;99.90;;;;;;5039255;28;20045;-80
2022/03/05 05:17:39;;;;;;;23.90;10.40;;;-2.90;99.90;;;;;;5072045;28;20106;-80
2022/03/05 05:20:06;;;;;;;26.63;11.88;;;-3.50;99.90;;;;;;5056058;28;20076;-80
2022/03/05 05:22:32;;;;;;;20.20;9.48;;;-3.50;99.90;;;;;;5057715;28;20412;-80
2022/03/05 05:24:59;;;;;;;24.90;9.68;;;-3.60;99.90;;;;;;5042826;28;20048;-80
2022/03/05 05:27:25;;;;;;;21.25;10.02;;;-3.20;99.90;;;;;;5055426;28;20041;-80
2022/03/05 05:29:51;;;;;;;20.63;9.85;;;-3.70;99.90;;;;;;5055781;28;20081;-80
2022/03/05 05:32:17;;;;;;;24.17;9.98;;;-3.60;99.90;;;;;;5058414;28;20040;-80
2022/03/05 05:34:43;;;;;;;25.60;10.30;;;-3.60;99.90;;;;;;5072570;28;20064;-81
2022/03/05 05:37:08;;;;;;;21.08;11.55;;;-3.30;99.90;;;;;;5056144;28;20033;-81
2022/03/05 05:39:34;;;;;;;22.95;9.82;;;-3.80;99.90;;;;;;5039120;28;20037;-80
2022/03/05 05:42:00;;;;;;;22.20;10.55;;;-3.80;99.90;;;;;;5057081;28;20045;-80
2022/03/05 05:44:25;;;;;;;22.58;10.32;;;-3.80;99.90;;;;;;5073300;28;20053;-80
2022/03/05 05:46:51;;;;;;;20.30;8.80;;;-3.40;99.90;;;;;;5076521;28;20115;-80
2022/03/05 05:49:17;;;;;;;21.83;9.88;;;-4.00;99.90;;;;;;5092284;28;20060;-80
2022/03/05 05:51:42;;;;;;;22.00;10.60;;;-4.00;99.90;;;;;;5076109;28;20566;-80
2022/03/05 05:54:08;;;;;;;18.92;9.77;;;-4.00;99.90;;;;;;5076603;28;20119;-80
2022/03/05 05:56:34;;;;;;;22.55;11.07;;;-4.00;99.90;;;;;;5075500;28;20048;-80
2022/03/05 05:59:00;;;;;;;21.13;9.77;;;-4.10;99.90;;;;;;5075523;28;20052;-80
2022/03/05 06:01:26;;;;;;;21.17;10.50;;;-4.00;99.90;;;;;;5058369;28;20044;-80
2022/03/05 06:03:53;;;;;;;24.02;10.43;;;-3.20;99.90;;;;;;5076535;28;20051;-80
2022/03/05 06:06:19;;;;;;;26.25;10.50;;;-3.90;99.90;;;;;;5075653;28;20052;-80
2022/03/05 06:08:45;;;;;;;24.17;11.32;;;-3.90;99.90;;;;;;5075604;28;20143;-80
2022/03/05 06:11:10;;;;;;;22.77;10.98;;;-3.80;99.90;;;;;;5075121;28;20375;-80
2022/03/05 06:13:36;;;;;;;27.13;11.63;;;-3.90;99.90;;;;;;5064083;28;20472;-80
2022/03/05 06:16:02;;;;;;;20.67;9.68;;;-3.80;99.90;;;;;;5059248;28;20048;-80
2022/03/05 06:18:28;;;;;;;23.38;10.00;;;-3.80;99.90;;;;;;5075837;28;20048;-80
2022/03/05 06:20:54;;;;;;;26.40;10.10;;;-3.80;99.90;;;;;;5076802;28;20041;-81
2022/03/05 06:23:19;;;;;;;24.52;10.02;;;-3.80;99.90;;;;;;5072229;28;20041;-81
2022/03/05 06:25:45;;;;;;;22.15;10.30;;;-3.70;99.90;;;;;;5055991;28;20507;-81
2022/03/05 06:28:11;;;;;;;21.70;11.65;;;-3.60;99.90;;;;;;5071468;28;20398;-81
2022/03/05 06:30:36;;;;;;;26.95;10.90;;;-3.60;99.90;;;;;;5075277;28;20041;-81
2022/03/05 06:33:02;;;;;;;21.33;9.43;;;-3.50;99.90;;;;;;5058776;28;20051;-81
2022/03/05 06:35:28;;;;;;;20.80;9.77;;;-3.50;99.90;;;;;;5059126;28;20045;-81
2022/03/05 06:37:56;;;;;;;21.40;10.32;;;-3.40;99.90;;;;;;5076452;28;20545;-81
2022/03/05 06:40:22;;;;;;;22.55;10.32;;;-3.30;99.90;;;;;;5077208;28;20348;-81
2022/03/05 06:42:48;;;;;;;20.13;8.23;;;-3.20;99.90;;;;;;5076867;28;20043;-81
2022/03/05 06:45:14;;;;;;;22.70;10.13;;;-3.20;99.90;;;;;;5055389;28;20106;-81
2022/03/05 06:47:40;;;;;;;18.40;8.88;;;-3.10;99.90;;;;;;5056190;28;20067;-81
2022/03/05 06:50:08;;;;;;;19.58;9.55;;;-3.10;99.90;;;;;;5053132;28;20538;-81
2022/03/05 06:52:34;;;;;;;18.02;8.35;;;-3.10;99.90;;;;;;5053835;28;20048;-81
2022/03/05 06:55:00;;;;;;;22.38;9.07;;;-3.00;99.90;;;;;;5071894;28;20033;-80
2022/03/05 06:57:26;;;;;;;21.13;8.10;;;-3.00;99.90;;;;;;5073169;28;20040;-81
2022/03/05 06:59:53;;;;;;;22.70;9.30;;;-2.90;99.90;;;;;;5071735;28;20029;-81
2022/03/05 07:02:19;;;;;;;17.73;9.02;;;-2.80;99.90;;;;;;5068364;28;20384;-81
2022/03/05 07:04:44;;;;;;;19.88;9.65;;;-2.70;99.90;;;;;;5071751;28;20514;-80
2022/03/05 07:07:10;;;;;;;18.83;9.43;;;-2.70;99.90;;;;;;5072397;28;20043;-81
2022/03/05 07:09:35;;;;;;;18.58;9.00;;;-2.50;99.90;;;;;;5071149;28;20562;-81
2022/03/05 07:12:02;;;;;;;32.67;10.07;;;-2.50;99.90;;;;;;5070969;28;20382;-81
2022/03/05 07:14:27;;;;;;;23.08;9.13;;;-2.40;99.90;;;;;;5071738;28;20054;-81
2022/03/05 07:16:54;;;;;;;22.90;10.93;;;-2.20;99.90;;;;;;5071443;28;20115;-81
2022/03/05 07:19:21;;;;;;;19.10;8.82;;;-2.10;99.90;;;;;;5071134;28;20384;-81
2022/03/05 07:21:46;;;;;;;19.17;10.13;;;-2.00;99.90;;;;;;5071975;28;20051;-81
2022/03/05 07:24:12;;;;;;;17.48;9.13;;;-2.00;99.90;;;;;;5071713;28;20139;-81
2022/03/05 07:26:38;;;;;;;18.17;9.40;;;-1.80;99.90;;;;;;5070357;28;20076;-81
2022/03/05 07:29:05;;;;;;;18.83;7.97;;;-1.60;99.90;;;;;;5070753;28;20083;-81
2022/03/05 07:31:30;;;;;;;19.15;8.82;;;-1.50;99.90;;;;;;5071263;28;20127;-81
2022/03/05 07:33:56;;;;;;;16.95;8.40;;;-0.60;99.90;;;;;;5053818;28;20125;-81
2022/03/05 07:36:21;;;;;;;16.75;8.98;;;-1.30;99.90;;;;;;5071655;28;20511;-81
2022/03/05 07:38:47;;;;;;;18.08;8.57;;;-1.10;99.90;;;;;;5070263;28;20053;-80
2022/03/05 07:41:13;;;;;;;16.15;7.68;;;-1.00;99.90;;;;;;5069730;28;20479;-81
2022/03/05 07:43:39;;;;;;;20.10;9.05;;;-0.50;99.90;;;;;;5070351;28;20063;-81
2022/03/05 07:46:05;;;;;;;17.85;8.15;;;-1.00;99.90;;;;;;5069227;28;20564;-81
2022/03/05 07:48:31;;;;;;;17.25;9.13;;;-1.00;99.90;;;;;;5070346;28;20053;-81
2022/03/05 07:50:59;;;;;;;16.85;9.27;;;-1.00;99.90;;;;;;5061034;28;20036;-80
2022/03/05 07:53:27;;;;;;;15.55;7.75;;;-0.90;99.90;;;;;;5069613;28;20048;-80
2022/03/05 07:55:53;;;;;;;19.73;9.80;;;-0.80;99.90;;;;;;5089848;28;20052;-81
2022/03/05 07:58:18;;;;;;;19.17;10.05;;;-0.70;99.90;;;;;;5052361;28;20041;-81
2022/03/05 08:00:44;;;;;;;19.10;8.70;;;-0.10;99.90;;;;;;5069419;28;20036;-81
2022/03/05 08:03:10;;;;;;;20.70;9.02;;;-0.60;99.90;;;;;;5068624;28;20087;-80
2022/03/05 08:05:35;;;;;;;17.48;8.98;;;-0.60;99.90;;;;;;5070140;28;20395;-81
2022/03/05 08:08:01;;;;;;;19.55;10.00;;;-0.20;99.90;;;;;;5050387;28;20257;-81
2022/03/05 08:10:27;;;;;;;23.33;10.35;;;-0.40;99.90;;;;;;5032972;28;20056;-81
2022/03/05 08:12:52;;;;;;;20.38;9.00;;;-0.40;99.90;;;;;;5067690;28;20036;-81
2022/03/05 08:15:18;;;;;;;19.63;9.73;;;-0.10;99.90;;;;;;5053071;28;20071;-81
2022/03/05 08:17:58;;;;;;;20.33;10.57;;;-0.10;99.90;;;;;;5069429;28;20052;-81
2022/03/05 08:20:26;;;;;;;21.20;8.85;;;0.00;99.90;;;;;;5052777;28;20042;-81
2022/03/05 08:22:52;;;;;;;20.38;9.88;;;0.40;99.90;;;;;;5049264;28;20080;-81
2022/03/05 08:25:18;;;;;;;17.05;9.25;;;0.20;99.90;;;;;;5033020;28;20509;-81
2022/03/05 08:27:44;;;;;;;15.43;7.15;;;0.30;99.90;;;;;;5049492;28;20049;-81
2022/03/05 08:30:11;;;;;;;16.45;8.70;;;0.40;99.90;;;;;;5032964;28;20056;-81
2022/03/05 08:32:36;;;;;;;17.13;9.30;;;0.50;99.90;;;;;;5033593;28;20045;-81
2022/03/05 08:35:04;;;;;;;14.80;8.55;;;0.60;99.90;;;;;;5068311;28;20047;-81
2022/03/05 08:37:29;;;;;;;17.30;9.43;;;0.60;99.90;;;;;;5068993;28;20507;-81
2022/03/05 08:39:55;;;;;;;19.35;10.13;;;0.60;99.90;;;;;;5069744;28;20059;-81
2022/03/05 08:42:21;;;;;;;22.38;10.50;;;0.70;99.90;;;;;;5070357;28;20075;-81
2022/03/05 08:44:46;;;;;;;22.00;10.57;;;1.00;99.90;;;;;;5051941;28;20080;-81
2022/03/05 08:47:12;;;;;;;19.17;10.23;;;0.80;99.90;;;;;;5052470;28;20114;-81
2022/03/05 08:49:38;;;;;;;16.63;9.25;;;1.20;99.90;;;;;;5068823;28;20136;-81
2022/03/05 08:52:04;;;;;;;20.17;9.85;;;1.00;99.90;;;;;;5086029;28;20124;-81
2022/03/05 08:54:29;;;;;;;16.75;8.00;;;1.10;99.90;;;;;;5056052;28;20036;-81
2022/03/05 08:56:55;;;;;;;17.25;8.40;;;1.20;99.90;;;;;;5056654;28;20048;-81
2022/03/05 08:59:20;;;;;;;18.85;9.93;;;1.60;99.90;;;;;;5072804;28;20051;-81
2022/03/05 09:01:46;;;;;;;17.00;8.90;;;1.20;99.90;;;;;;5055844;28;20048;-81
2022/03/05 09:04:12;;;;;;;19.42;9.70;;;1.40;99.90;;;;;;5055709;28;20037;-81
2022/03/05 09:06:38;;;;;;;18.88;8.13;;;1.40;99.90;;;;;;5072298;28;20593;-81
2022/03/05 09:09:07;;;;;;;19.20;7.85;;;1.50;99.90;;;;;;5055773;28;20525;-81
2022/03/05 09:11:34;;;;;;;18.13;9.45;;;1.60;99.90;;;;;;5056119;28;20109;-81
2022/03/05 09:14:00;;;;;;;19.23;9.85;;;1.60;99.90;;;;;;5068609;28;20045;-81
2022/03/05 09:16:25;;;;;;;16.67;8.38;;;1.70;99.90;;;;;;5054412;28;20066;-81
2022/03/05 09:18:51;;;;;;;17.88;7.68;;;1.70;99.90;;;;;;5055943;28;20460;-81
2022/03/05 09:21:17;;;;;;;22.35;10.40;;;2.20;99.90;;;;;;5055608;28;20538;-81
2022/03/05 09:23:43;;;;;;;16.60;7.28;;;2.20;99.90;;;;;;5071933;28;20048;-81
2022/03/05 09:26:08;;;;;;;18.88;8.98;;;1.90;99.90;;;;;;5056113;28;20384;-81
2022/03/05 09:28:36;;;;;;;19.70;8.55;;;2.00;99.90;;;;;;5055913;28;20044;-81
2022/03/05 09:31:02;;;;;;;22.80;10.23;;;2.00;99.90;;;;;;5055778;28;20095;-81
2022/03/05 09:33:27;;;;;;;24.58;9.65;;;2.10;99.90;;;;;;5072234;28;20076;-81
2022/03/05 09:35:54;;;;;;;21.33;10.25;;;2.20;99.90;;;;;;5055100;28;20049;-81
2022/03/05 09:38:19;;;;;;;16.33;8.18;;;2.30;99.90;;;;;;5055802;28;20406;-81
2022/03/05 09:40:45;;;;;;;15.88;7.65;;;2.40;99.90;;;;;;5055206;28;20055;-81
2022/03/05 09:43:11;;;;;;;19.63;10.18;;;2.50;99.90;;;;;;5055069;28;20044;-81
2022/03/05 09:45:38;;;;;;;18.60;10.10;;;2.50;99.90;;;;;;5035086;28;20048;-81
2022/03/05 09:48:04;;;;;;;25.20;11.85;;;2.50;99.90;;;;;;5034984;28;20100;-81
2022/03/05 09:50:32;;;;;;;19.48;10.15;;;2.60;99.90;;;;;;5034520;28;20406;-82
2022/03/05 09:53:01;;;;;;;20.38;9.23;;;2.70;99.90;;;;;;5034123;28;20055;-82
2022/03/05 09:55:29;;;;;;;20.40;10.07;;;2.80;99.90;;;;;;5050851;28;20048;-82
2022/03/05 09:57:55;;;;;;;21.85;11.10;;;2.80;99.90;;;;;;5036359;28;20498;-82
2022/03/05 10:00:21;;;;;;;22.30;10.30;;;2.80;99.90;;;;;;5033518;28;20041;-82
2022/03/05 10:02:47;;;;;;;17.50;8.98;;;2.90;99.90;;;;;;5015192;28;20176;-82
2022/03/05 10:05:24;;;;;;;27.77;11.55;;;3.10;99.90;;;;;;5051028;28;20041;-82
2022/03/05 10:08:15;;;;;;;23.27;11.07;;;3.00;99.90;;;;;;5052356;28;20048;-81
2022/03/05 10:10:45;;;;;;;20.73;10.75;;;3.20;99.90;;;;;;5052568;28;20052;-82
2022/03/05 10:13:23;;;;;;;25.13;11.43;;;3.30;99.90;;;;;;5035114;28;20341;-82
2022/03/05 10:15:54;;;;;;;23.67;10.82;;;3.40;99.90;;;;;;5032170;28;20046;-82
2022/03/05 10:18:31;;;;;;;18.15;10.20;;;3.40;99.90;;;;;;5032471;28;20041;-82
2022/03/05 10:20:59;;;;;;;21.30;11.60;;;3.60;99.90;;;;;;5032195;28;20088;-83
2022/03/05 10:23:24;;;;;;;17.58;8.82;;;3.80;99.90;;;;;;5032346;28;20087;-82
2022/03/05 10:25:54;;;;;;;23.70;11.27;;;3.90;99.90;;;;;;5031883;28;20124;-82
2022/03/05 10:28:28;;;;;;;21.70;10.45;;;4.10;99.90;;;;;;5032360;28;20068;-82
2022/03/05 10:31:04;;;;;;;18.83;10.20;;;4.10;99.90;;;;;;5032258;28;20046;-82
2022/03/05 10:33:42;;;;;;;21.42;11.63;;;4.30;99.90;;;;;;5030476;28;20454;-82
2022/03/05 10:36:09;;;;;;;22.33;12.30;;;4.40;99.90;;;;;;5031968;28;20466;-82
2022/03/05 10:38:47;;;;;;;22.00;11.80;;;4.40;99.90;;;;;;5031934;28;20049;-82
2022/03/05 10:41:17;;;;;;;22.38;11.90;;;4.60;99.90;;;;;;5030288;28;20053;-82
2022/03/05 10:43:47;;;;;;;20.17;11.70;;;4.80;99.90;;;;;;5042214;28;20053;-82
2022/03/05 10:46:13;;;;;;;24.58;11.82;;;4.90;99.90;;;;;;5069027;28;20115;-82
2022/03/05 10:48:42;;;;;;;21.48;12.07;;;4.70;99.90;;;;;;5070107;28;20075;-82
2022/03/05 10:51:12;;;;;;;20.27;11.55;;;4.70;99.90;;;;;;5070835;28;20056;-82
2022/03/05 10:53:40;;;;;;;23.33;12.65;;;4.80;99.90;;;;;;5071176;28;20458;-82
2022/03/05 10:56:32;;;;;;;18.88;9.63;;;4.70;99.90;;;;;;5070939;28;20040;-82
2022/03/05 10:59:10;;;;;;;26.95;15.10;;;4.70;99.90;;;;;;5069800;28;20048;-82
2022/03/05 11:01:38;;;;;;;20.67;11.38;;;4.70;99.90;;;;;;5070637;28;20056;-82
2022/03/05 11:04:05;;;;;;;22.80;11.23;;;4.90;99.90;;;;;;5049176;28;20499;-82
2022/03/05 11:06:34;;;;;;;26.08;13.13;;;5.10;99.90;;;;;;5051130;28;20072;-82
2022/03/05 11:09:00;;;;;;;24.67;12.85;;;5.20;99.90;;;;;;5051251;28;20092;-82
2022/03/05 11:11:27;;;;;;;21.88;12.63;;;5.30;99.90;;;;;;5032941;28;20491;-82
2022/03/05 11:13:53;;;;;;;23.85;11.85;;;5.40;99.90;;;;;;5062627;28;20051;-82
2022/03/05 11:16:19;;;;;;;24.15;13.55;;;5.70;99.90;;;;;;5070413;28;20040;-82
2022/03/05 11:18:45;;;;;;;24.63;12.68;;;5.70;99.90;;;;;;5070496;28;20052;-81
2022/03/05 11:21:11;;;;;;;22.92;12.65;;;5.50;99.90;;;;;;5070506;28;20506;-82
2022/03/05 11:23:38;;;;;;;22.48;13.40;;;5.60;99.90;;;;;;5071137;28;20036;-82
2022/03/05 11:26:07;;;;;;;26.17;12.07;;;5.50;99.90;;;;;;5070340;28;20056;-82
2022/03/05 11:28:44;;;;;;;21.70;11.25;;;5.60;99.90;;;;;;5068761;28;20040;-82
2022/03/05 11:31:19;;;;;;;25.65;11.77;;;5.60;99.90;;;;;;5070188;28;20072;-83
2022/03/05 11:33:46;;;;;;;27.17;12.50;;;5.80;99.90;;;;;;5070317;28;20083;-82
2022/03/05 11:36:35;;;;;;;23.13;11.20;;;5.90;99.90;;;;;;5070731;28;20044;-82
2022/03/05 11:39:13;;;;;;;25.45;13.75;;;6.10;99.90;;;;;;5070242;28;20036;-83
2022/03/05 11:42:02;;;;;;;20.30;11.70;;;6.10;99.90;;;;;;5070414;28;20106;-82
2022/03/05 11:44:36;;;;;;;21.90;11.70;;;6.10;99.90;;;;;;5069508;28;20517;-82
2022/03/05 11:47:21;;;;;;;20.88;12.13;;;6.20;99.90;;;;;;5070583;28;20127;-82
2022/03/05 11:49:56;;;;;;;22.52;11.90;;;6.30;99.90;;;;;;5070179;28;20044;-83
2022/03/05 11:52:22;;;;;;;19.97;11.23;;;6.20;99.90;;;;;;5070822;28;20066;-83
2022/03/05 11:55:17;;;;;;;21.02;11.85;;;6.30;99.90;;;;;;5069908;28;20058;-83
2022/03/05 11:58:05;;;;;;;23.15;11.75;;;6.30;99.90;;;;;;5070489;28;20043;-82
2022/03/05 12:00:32;;;;;;;24.50;12.90;;;6.50;99.90;;;;;;5052143;28;20550;-83
2022/03/05 12:02:59;;;;;;;23.23;13.27;;;6.50;99.90;;;;;;5070322;28;20116;-83
2022/03/05 12:05:41;;;;;;;22.55;13.20;;;6.70;99.90;;;;;;5069215;28;20082;-83
2022/03/05 12:08:09;;;;;;;26.02;13.10;;;6.60;99.90;;;;;;5050911;28;20060;-83
2022/03/05 12:10:38;;;;;;;21.20;12.63;;;6.40;99.90;;;;;;5050332;28;20049;-83
2022/03/05 12:13:05;;;;;;;26.50;13.52;;;6.70;99.90;;;;;;5050243;28;20079;-83
2022/03/05 12:15:41;;;;;;;24.13;13.20;;;6.90;99.90;;;;;;5060398;28;20105;-83
2022/03/05 12:18:12;;;;;;;20.17;12.15;;;7.00;99.90;;;;;;5073305;28;20076;-83
2022/03/05 12:20:40;;;;;;;20.48;11.70;;;7.30;99.90;;;;;;5073107;28;20048;-84
2022/03/05 12:23:09;;;;;;;24.55;13.70;;;7.50;99.90;;;;;;5072463;28;20542;-83
2022/03/05 12:25:37;;;;;;;22.95;13.75;;;7.50;99.90;;;;;;5072604;28;20115;-83
2022/03/05 12:28:05;;;;;;;22.63;13.32;;;7.70;99.90;;;;;;5075531;28;20044;-83
2022/03/05 12:30:35;;;;;;;22.42;12.55;;;7.40;98.20;;;;;;5077102;28;20048;-84
2022/03/05 12:33:04;;;;;;;22.65;12.32;;;7.30;99.90;;;;;;5072703;28;20076;-83
2022/03/05 12:35:30;;;;;;;23.70;13.27;;;7.20;99.90;;;;;;5064059;28;20478;-83